Time,TemperatureF,DewpointF,PressureIn,WindDirection,WindDirectionDegrees,WindSpeedMPH,WindSpeedGustMPH,Humidity,HourlyPrecipIn,Conditions,Clouds,dailyrainin,SoftwareType,DateUTC
2013-05-11 00:06:00,60.4,59.8,29.89,NE,45,0.0,-999.0,98,-99.99,,,0.00,Acu-Link.com,2013-05-11 05:06:00,
2013-05-11 00:21:00,59.9,59.3,29.90,North,0,0.0,-999.0,98,-99.99,,,0.00,Acu-Link.com,2013-05-11 05:21:00,
2013-05-11 00:36:00,59.4,58.8,29.91,SW,225,0.0,-999.0,98,-99.99,,,0.00,Acu-Link.com,2013-05-11 05:36:00,
2013-05-11 00:51:00,59.4,58.8,29.94,West,270,0.0,-999.0,98,-99.99,,,0.00,Acu-Link.com,2013-05-11 05:51:00,
2013-05-11 01:07:00,59.7,59.1,29.92,WNW,292,0.0,-999.0,98,-99.99,,,0.00,Acu-Link.com,2013-05-11 06:07:00,
2013-05-11 01:22:00,60.4,59.8,29.93,West,270,0.0,-999.0,98,-99.99,,,0.00,Acu-Link.com,2013-05-11 06:22:00,
2013-05-11 01:37:00,60.6,60.0,29.94,West,270,0.0,-999.0,98,-99.99,,,0.00,Acu-Link.com,2013-05-11 06:37:00,
2013-05-11 01:52:00,60.3,59.7,29.94,SW,225,2.7,-999.0,98,-99.99,,,0.00,Acu-Link.com,2013-05-11 06:52:00,
2013-05-11 02:07:00,60.6,60.0,29.94,WSW,247,1.1,-999.0,98,-99.99,,,0.00,Acu-Link.com,2013-05-11 07:07:00,
2013-05-11 02:22:00,61.3,60.7,29.94,West,270,3.2,-999.0,98,-99.99,,,0.00,Acu-Link.com,2013-05-11 07:22:00,
2013-05-11 02:37:00,61.5,60.9,29.94,West,270,0.0,-999.0,98,-99.99,,,0.00,Acu-Link.com,2013-05-11 07:37:00,
2013-05-11 02:52:00,61.9,61.3,29.94,West,270,2.2,-999.0,98,-99.99,,,0.00,Acu-Link.com,2013-05-11 07:52:00,
2013-05-11 03:08:00,62.1,61.5,29.94,West,270,2.2,-999.0,98,-99.99,,,0.00,Acu-Link.com,2013-05-11 08:08:00,
2013-05-11 03:23:00,62.1,61.5,29.94,West,270,2.7,-999.0,98,-99.99,,,0.00,Acu-Link.com,2013-05-11 08:23:00,
2013-05-11 03:38:00,62.2,61.6,29.93,SW,225,0.0,-999.0,98,-99.99,,,0.00,Acu-Link.com,2013-05-11 08:38:00,
2013-05-11 03:53:00,62.1,61.5,29.93,WNW,292,1.1,-999.0,98,-99.99,,,0.00,Acu-Link.com,2013-05-11 08:53:00,
2013-05-11 04:09:00,61.9,61.3,29.93,NW,315,0.0,-999.0,98,-99.99,,,0.00,Acu-Link.com,2013-05-11 09:09:00,
2013-05-11 04:24:00,61.9,61.3,29.94,North,0,0.0,-999.0,98,-99.99,,,0.00,Acu-Link.com,2013-05-11 09:24:00,
2013-05-11 04:39:00,61.7,61.1,29.94,West,270,2.7,-999.0,98,-99.99,,,0.00,Acu-Link.com,2013-05-11 09:39:00,
2013-05-11 04:54:00,61.7,61.1,29.95,NE,45,0.0,-999.0,98,-99.99,,,0.00,Acu-Link.com,2013-05-11 09:54:00,
2013-05-11 05:09:00,61.5,60.9,29.96,NW,315,0.0,-999.0,98,-99.99,,,0.00,Acu-Link.com,2013-05-11 10:09:00,
2013-05-11 05:24:00,61.3,60.7,29.96,West,270,0.0,-999.0,98,-99.99,,,0.00,Acu-Link.com,2013-05-11 10:24:00,
2013-05-11 05:39:00,61.0,60.4,29.97,West,270,0.0,-999.0,98,-99.99,,,0.00,Acu-Link.com,2013-05-11 10:39:00,
2013-05-11 05:54:00,60.8,60.2,29.97,West,270,0.0,-999.0,98,-99.99,,,0.00,Acu-Link.com,2013-05-11 10:54:00,
2013-05-11 06:09:00,60.6,60.0,29.95,NE,45,0.0,-999.0,98,-99.99,,,0.00,Acu-Link.com,2013-05-11 11:09:00,
2013-05-11 06:25:00,60.8,60.2,29.96,NW,315,2.2,-999.0,98,-99.99,,,0.01,Acu-Link.com,2013-05-11 11:25:00,
2013-05-11 06:40:00,61.0,60.4,29.96,NNW,337,2.2,-999.0,98,-99.99,,,0.01,Acu-Link.com,2013-05-11 11:40:00,
2013-05-11 06:55:00,60.6,60.0,29.97,WNW,292,1.7,-999.0,98,-99.99,,,0.01,Acu-Link.com,2013-05-11 11:55:00,
2013-05-11 07:10:00,60.8,60.2,29.97,NNW,337,1.7,-999.0,98,-99.99,,,0.01,Acu-Link.com,2013-05-11 12:10:00,
2013-05-11 07:25:00,61.0,60.4,29.97,NW,315,2.7,-999.0,98,-99.99,,,0.01,Acu-Link.com,2013-05-11 12:25:00,
2013-05-11 07:43:00,61.3,60.7,29.97,SSW,202,0.0,-999.0,98,-99.99,,,0.01,Acu-Link.com,2013-05-11 12:43:00,
2013-05-11 09:20:00,70.3,69.7,29.99,NNE,22,4.2,-999.0,98,-99.99,,,0.01,Acu-Link.com,2013-05-11 14:20:00,
2013-05-11 09:40:00,72.5,71.9,30.00,NE,45,4.7,-999.0,98,-99.99,,,0.01,Acu-Link.com,2013-05-11 14:40:00,
2013-05-11 09:57:00,73.9,73.3,30.01,West,270,2.7,-999.0,98,-99.99,,,0.01,Acu-Link.com,2013-05-11 14:57:00,
2013-05-11 10:13:00,73.8,73.2,30.00,NE,45,3.2,-999.0,98,-99.99,,,0.01,Acu-Link.com,2013-05-11 15:13:00,
2013-05-11 10:28:00,71.4,70.8,30.01,NW,315,3.2,-999.0,98,-99.99,,,0.01,Acu-Link.com,2013-05-11 15:28:00,
2013-05-11 10:43:00,71.2,70.6,30.01,NNW,337,0.0,-999.0,98,-99.99,,,0.01,Acu-Link.com,2013-05-11 15:43:00,
2013-05-11 10:58:00,74.8,74.2,30.01,West,270,1.1,-999.0,98,-99.99,,,0.01,Acu-Link.com,2013-05-11 15:58:00,
2013-05-11 11:54:00,77.0,58.0,30.00,East,90,4.7,-999.0,52,-99.99,,,0.01,Acu-Link.com,2013-05-11 16:54:00,
2013-05-11 12:12:00,78.4,53.4,30.01,NNW,337,8.9,-999.0,42,-99.99,,,0.01,Acu-Link.com,2013-05-11 17:12:00,
2013-05-11 12:31:00,75.6,52.1,30.00,NNE,22,4.7,-999.0,44,-99.99,,,0.01,Acu-Link.com,2013-05-11 17:31:00,
2013-05-11 12:46:00,77.0,50.8,30.00,NNW,337,1.7,-999.0,40,-99.99,,,0.01,Acu-Link.com,2013-05-11 17:46:00,
2013-05-11 13:01:00,79.5,50.9,30.00,SW,225,3.2,-999.0,37,-99.99,,,0.01,Acu-Link.com,2013-05-11 18:01:00,
2013-05-11 13:16:00,78.6,46.3,29.99,NE,45,5.8,-999.0,32,-99.99,,,0.01,Acu-Link.com,2013-05-11 18:16:00,
2013-05-11 13:31:00,78.6,44.6,30.00,NE,45,4.2,-999.0,30,-99.99,,,0.01,Acu-Link.com,2013-05-11 18:31:00,
2013-05-11 13:46:00,84.9,-12.6,30.00,West,270,4.7,-999.0,2,-99.99,,,0.01,Acu-Link.com,2013-05-11 18:46:00,
2013-05-11 14:01:00,85.8,-25.4,29.99,ESE,112,3.7,-999.0,1,-99.99,,,0.01,Acu-Link.com,2013-05-11 19:01:00,
2013-05-11 14:17:00,86.4,-25.0,29.99,NE,45,3.7,-999.0,1,-99.99,,,0.01,Acu-Link.com,2013-05-11 19:17:00,
2013-05-11 14:32:00,87.3,-24.5,29.99,West,270,5.3,-999.0,1,-99.99,,,0.01,Acu-Link.com,2013-05-11 19:32:00,
2013-05-11 14:47:00,88.3,-23.9,29.99,ENE,67,4.7,-999.0,1,-99.99,,,0.01,Acu-Link.com,2013-05-11 19:47:00,
2013-05-11 15:02:00,88.7,-23.7,29.99,NE,45,5.8,-999.0,1,-99.99,,,0.01,Acu-Link.com,2013-05-11 20:02:00,
2013-05-11 15:17:00,86.7,-24.9,29.98,WNW,292,2.2,-999.0,1,-99.99,,,0.01,Acu-Link.com,2013-05-11 20:17:00,
2013-05-11 15:32:00,87.8,-24.2,29.97,NW,315,5.8,-999.0,1,-99.99,,,0.01,Acu-Link.com,2013-05-11 20:32:00,
2013-05-11 15:47:00,86.7,-24.9,29.97,North,0,3.2,-999.0,1,-99.99,,,0.01,Acu-Link.com,2013-05-11 20:47:00,
2013-05-11 16:02:00,84.6,-26.1,29.97,West,270,4.2,-999.0,1,-99.99,,,0.01,Acu-Link.com,2013-05-11 21:02:00,
2013-05-11 16:17:00,86.7,-24.9,29.96,SSW,202,4.2,-999.0,1,-99.99,,,0.01,Acu-Link.com,2013-05-11 21:17:00,
2013-05-11 16:33:00,87.4,-24.5,29.96,ESE,112,3.7,-999.0,1,-99.99,,,0.01,Acu-Link.com,2013-05-11 21:33:00,
2013-05-11 16:48:00,85.3,-25.7,29.96,ENE,67,3.7,-999.0,1,-99.99,,,0.01,Acu-Link.com,2013-05-11 21:48:00,
2013-05-11 17:03:00,84.6,-26.1,29.96,ENE,67,5.3,-999.0,1,-99.99,,,0.01,Acu-Link.com,2013-05-11 22:03:00,
2013-05-11 17:18:00,86.5,-25.0,29.95,North,0,4.7,-999.0,1,-99.99,,,0.01,Acu-Link.com,2013-05-11 22:18:00,
2013-05-11 17:33:00,85.8,-25.4,29.95,North,0,2.2,-999.0,1,-99.99,,,0.01,Acu-Link.com,2013-05-11 22:33:00,
2013-05-11 17:48:00,85.5,-25.6,29.96,SW,225,5.3,-999.0,1,-99.99,,,0.01,Acu-Link.com,2013-05-11 22:48:00,
2013-05-11 18:03:00,84.0,-26.5,29.95,West,270,0.0,-999.0,1,-99.99,,,0.01,Acu-Link.com,2013-05-11 23:03:00,
2013-05-11 18:18:00,83.1,-27.0,29.95,ESE,112,3.2,-999.0,1,-99.99,,,0.01,Acu-Link.com,2013-05-11 23:18:00,
2013-05-11 18:33:00,82.4,-27.4,29.95,NE,45,4.2,-999.0,1,-99.99,,,0.01,Acu-Link.com,2013-05-11 23:33:00,
2013-05-11 18:49:00,81.3,-28.1,29.96,ENE,67,1.1,-999.0,1,-99.99,,,0.01,Acu-Link.com,2013-05-11 23:49:00,
2013-05-11 19:04:00,80.2,-28.7,29.96,East,90,5.8,-999.0,1,-99.99,,,0.01,Acu-Link.com,2013-05-12 00:04:00,
2013-05-11 19:19:00,77.9,-30.1,29.97,NE,45,2.7,-999.0,1,-99.99,,,0.01,Acu-Link.com,2013-05-12 00:19:00,
2013-05-11 19:34:00,77.0,-30.6,29.97,North,0,4.7,-999.0,1,-99.99,,,0.01,Acu-Link.com,2013-05-12 00:34:00,
2013-05-11 19:49:00,75.2,-31.7,29.98,East,90,3.7,-999.0,1,-99.99,,,0.01,Acu-Link.com,2013-05-12 00:49:00,
2013-05-11 20:04:00,73.8,30.2,29.99,NNE,22,0.0,-999.0,20,-99.99,,,0.01,Acu-Link.com,2013-05-12 01:04:00,
2013-05-11 20:19:00,72.0,31.1,30.00,ENE,67,0.0,-999.0,22,-99.99,,,0.01,Acu-Link.com,2013-05-12 01:19:00,
2013-05-11 20:34:00,70.5,30.9,30.00,East,90,0.0,-999.0,23,-99.99,,,0.01,Acu-Link.com,2013-05-12 01:34:00,
2013-05-11 20:49:00,68.9,32.6,30.02,NNW,337,0.0,-999.0,26,-99.99,,,0.01,Acu-Link.com,2013-05-12 01:49:00,
2013-05-11 21:04:00,67.6,35.1,30.02,NNW,337,0.0,-999.0,30,-99.99,,,0.01,Acu-Link.com,2013-05-12 02:04:00,
2013-05-11 21:20:00,66.4,36.4,30.02,NNE,22,0.0,-999.0,33,-99.99,,,0.01,Acu-Link.com,2013-05-12 02:20:00,
2013-05-11 21:35:00,66.0,36.8,30.03,NE,45,0.0,-999.0,34,-99.99,,,0.01,Acu-Link.com,2013-05-12 02:35:00,
2013-05-11 21:50:00,65.3,37.7,30.03,ENE,67,0.0,-999.0,36,-99.99,,,0.01,Acu-Link.com,2013-05-12 02:50:00,
2013-05-11 22:05:00,64.8,40.5,30.03,WNW,292,0.0,-999.0,41,-99.99,,,0.01,Acu-Link.com,2013-05-12 03:05:00,
2013-05-11 22:20:00,64.2,42.4,30.04,WNW,292,0.0,-999.0,45,-99.99,,,0.01,Acu-Link.com,2013-05-12 03:20:00,
2013-05-11 22:35:00,64.2,43.5,30.03,WNW,292,0.0,-999.0,47,-99.99,,,0.01,Acu-Link.com,2013-05-12 03:35:00,
2013-05-11 22:50:00,64.0,43.9,30.03,West,270,0.0,-999.0,48,-99.99,,,0.01,Acu-Link.com,2013-05-12 03:50:00,
2013-05-11 23:05:00,64.4,44.3,30.03,NNW,337,0.0,-999.0,48,-99.99,,,0.01,Acu-Link.com,2013-05-12 04:05:00,
2013-05-11 23:20:00,63.5,46.1,30.04,ENE,67,0.0,-999.0,53,-99.99,,,0.01,Acu-Link.com,2013-05-12 04:20:00,
2013-05-11 23:36:00,62.6,46.7,30.04,ESE,112,0.0,-999.0,56,-99.99,,,0.01,Acu-Link.com,2013-05-12 04:36:00,
2013-05-11 23:51:00,61.5,60.9,30.04,East,90,0.0,-999.0,98,-99.99,,,0.01,Acu-Link.com,2013-05-12 04:51:00,